Cape Texel — V7RC4 — position and weather

sailwx.info

Track history (hours):
 
Tides and Currents Weather Stations Pressure Air Temp Water Temp Dewpoint Dewpoint Depression Visibility Wind Speed Wind Dir Waves Ship Positions

Cape Texel

Last reported at 2015-Apr-02 07:32 UTC. Time now 2015-Apr-02 07:57 UTC.
Position S 12°56' W 038°33'.

Length 228 m; draft 8.2 m.

Type: Ship (hazmat cat A). MMSI: 538090383.

Date/timePositionNaut miles runAvg speedWind from/ knotsBaromVisibWave heightAir tempDewpointWater temp
2015-Apr-02 07:32S 12°56' W 038°33'0 0.1
2015-Apr-02 06:32S 12°56' W 038°33'0 0.1
2015-Apr-02 05:32S 12°56' W 038°33'0 0.0
2015-Apr-02 04:32S 12°56' W 038°33'0 0.0
2015-Apr-02 03:32S 12°56' W 038°33'0 0.0
2015-Apr-02 02:29S 12°56' W 038°33'0 0.0
2015-Apr-02 01:32S 12°56' W 038°33'0 0.1
2015-Apr-02 00:32S 12°56' W 038°33'0 0.1
2015-Apr-01 23:32S 12°56' W 038°33'0 0.1
2015-Apr-01 22:32S 12°56' W 038°33'0 0.0
2015-Apr-01 21:29S 12°56' W 038°33'0 0.0
2015-Apr-01 20:32S 12°56' W 038°33'0 0.0
2015-Apr-01 19:32S 12°56' W 038°33'0 0.1
2015-Apr-01 18:29S 12°56' W 038°33'0 0.0
2015-Apr-01 13:20S 12°56' W 038°33'0 0.1
2015-Apr-01 12:26S 12°56' W 038°33'0 0.2
2015-Apr-01 11:32S 12°56' W 038°33'0 0.1
2015-Apr-01 10:32S 12°56' W 038°33'0 0.0
2015-Apr-01 09:32S 12°56' W 038°33'0 0.0
2015-Apr-01 08:32S 12°56' W 038°33'0 0.0
2015-Apr-01 07:32S 12°56' W 038°33'0 0.0
2015-Apr-01 06:32S 12°56' W 038°33'0 0.1
2015-Apr-01 05:32S 12°56' W 038°33'0 0.1
2015-Apr-01 04:32S 12°56' W 038°33'0 0.0
2015-Apr-01 03:32S 12°56' W 038°33'0 0.0
2015-Apr-01 02:32S 12°56' W 038°33'0 0.0
2015-Apr-01 01:32S 12°56' W 038°33'0 0.0
2015-Apr-01 00:32S 12°56' W 038°33'0 0.1
2015-Mar-31 23:32S 12°56' W 038°33'0 0.0
2015-Mar-31 22:32S 12°56' W 038°33'0 0.0
2015-Mar-31 21:32S 12°56' W 038°33'0 0.0
2015-Mar-31 20:32S 12°56' W 038°33'0 0.0
2015-Mar-31 19:32S 12°56' W 038°33'0 0.0
2015-Mar-31 18:32S 12°56' W 038°33'0 0.1
2015-Mar-31 17:32S 12°56' W 038°33'0 0.0
2015-Mar-31 16:32S 12°56' W 038°33'0 0.0
2015-Mar-31 15:32S 12°56' W 038°33'0 0.0
2015-Mar-31 14:32S 12°56' W 038°33'0 0.0
2015-Mar-31 13:32S 12°56' W 038°33'1 0.6
2015-Mar-31 12:33S 12°57' W 038°33'1211.6
2015-Mar-31 11:33S 13°08' W 038°32'10 1.8
2015-Mar-31 06:07S 13°11' W 038°22'1 1.0
2015-Mar-31 05:26S 13°10' W 038°23'5 5.0
2015-Mar-31 04:29S 13°06' W 038°21'  
Track history (hours):
 
Tides and Currents Weather Stations Pressure Air Temp Water Temp Dewpoint Dewpoint Depression Visibility Wind Speed Wind Dir Waves Ship Positions

Cape Texel

Last reported at 2015-Apr-02 07:32 UTC. Time now 2015-Apr-02 07:57 UTC.
Position S 12°56' W 038°33'.

Length 228 m; draft 8.2 m.

Type: Ship (hazmat cat A). MMSI: 538090383.

Date/timePositionNaut miles runAvg speedWind from/ knotsBaromVisibWave heightAir tempDewpointWater temp
2015-Apr-02 07:32S 12°56' W 038°33'0 0.1
2015-Apr-02 06:32S 12°56' W 038°33'0 0.1
2015-Apr-02 05:32S 12°56' W 038°33'0 0.0
2015-Apr-02 04:32S 12°56' W 038°33'0 0.0
2015-Apr-02 03:32S 12°56' W 038°33'0 0.0
2015-Apr-02 02:29S 12°56' W 038°33'0 0.0
2015-Apr-02 01:32S 12°56' W 038°33'0 0.1
2015-Apr-02 00:32S 12°56' W 038°33'0 0.1
2015-Apr-01 23:32S 12°56' W 038°33'0 0.1
2015-Apr-01 22:32S 12°56' W 038°33'0 0.0
2015-Apr-01 21:29S 12°56' W 038°33'0 0.0
2015-Apr-01 20:32S 12°56' W 038°33'0 0.0
2015-Apr-01 19:32S 12°56' W 038°33'0 0.1
2015-Apr-01 18:29S 12°56' W 038°33'0 0.0
2015-Apr-01 13:20S 12°56' W 038°33'0 0.1
2015-Apr-01 12:26S 12°56' W 038°33'0 0.2
2015-Apr-01 11:32S 12°56' W 038°33'0 0.1
2015-Apr-01 10:32S 12°56' W 038°33'0 0.0
2015-Apr-01 09:32S 12°56' W 038°33'0 0.0
2015-Apr-01 08:32S 12°56' W 038°33'0 0.0
2015-Apr-01 07:32S 12°56' W 038°33'0 0.0
2015-Apr-01 06:32S 12°56' W 038°33'0 0.1
2015-Apr-01 05:32S 12°56' W 038°33'0 0.1
2015-Apr-01 04:32S 12°56' W 038°33'0 0.0
2015-Apr-01 03:32S 12°56' W 038°33'0 0.0
2015-Apr-01 02:32S 12°56' W 038°33'0 0.0
2015-Apr-01 01:32S 12°56' W 038°33'0 0.0
2015-Apr-01 00:32S 12°56' W 038°33'0 0.1
2015-Mar-31 23:32S 12°56' W 038°33'0 0.0
2015-Mar-31 22:32S 12°56' W 038°33'0 0.0
2015-Mar-31 21:32S 12°56' W 038°33'0 0.0
2015-Mar-31 20:32S 12°56' W 038°33'0 0.0
2015-Mar-31 19:32S 12°56' W 038°33'0 0.0
2015-Mar-31 18:32S 12°56' W 038°33'0 0.1
2015-Mar-31 17:32S 12°56' W 038°33'0 0.0
2015-Mar-31 16:32S 12°56' W 038°33'0 0.0
2015-Mar-31 15:32S 12°56' W 038°33'0 0.0
2015-Mar-31 14:32S 12°56' W 038°33'0 0.0
2015-Mar-31 13:32S 12°56' W 038°33'1 0.6
2015-Mar-31 12:33S 12°57' W 038°33'1211.6
2015-Mar-31 11:33S 13°08' W 038°32'10 1.8
2015-Mar-31 06:07S 13°11' W 038°22'1 1.0
2015-Mar-31 05:26S 13°10' W 038°23'5 5.0
2015-Mar-31 04:29S 13°06' W 038°21'  

Dump ship's entire track history